sensor_id;sensor_type;location;lat;lon;timestamp;pressure;altitude;pressure_sealevel;temperature;humidity
74921;BME280;63483;47.384;8.860;2023-03-05T00:01:26;94774.19;;;-0.86;48.33
74921;BME280;63483;47.384;8.860;2023-03-05T00:03:53;94780.34;;;-0.75;48.49
74921;BME280;63483;47.384;8.860;2023-03-05T00:06:21;94775.88;;;-0.36;46.88
74921;BME280;63483;47.384;8.860;2023-03-05T00:08:47;94780.16;;;-0.85;48.16
74921;BME280;63483;47.384;8.860;2023-03-05T00:11:13;94781.75;;;-0.71;47.84
74921;BME280;63483;47.384;8.860;2023-03-05T00:13:38;94785.81;;;-1.19;45.62
74921;BME280;63483;47.384;8.860;2023-03-05T00:16:06;94786.38;;;-1.00;48.06
74921;BME280;63483;47.384;8.860;2023-03-05T00:18:32;94778.50;;;-0.86;48.12
74921;BME280;63483;47.384;8.860;2023-03-05T00:20:57;94777.72;;;-1.12;48.54
74921;BME280;63483;47.384;8.860;2023-03-05T00:23:23;94781.13;;;-0.99;48.42
74921;BME280;63483;47.384;8.860;2023-03-05T00:25:48;94772.94;;;-1.06;48.49
74921;BME280;63483;47.384;8.860;2023-03-05T00:28:13;94777.50;;;-1.35;45.15
74921;BME280;63483;47.384;8.860;2023-03-05T00:30:39;94780.59;;;-1.68;44.04
74921;BME280;63483;47.384;8.860;2023-03-05T00:33:05;94787.38;;;-1.55;49.23
74921;BME280;63483;47.384;8.860;2023-03-05T00:35:30;94784.50;;;-1.37;48.61
74921;BME280;63483;47.384;8.860;2023-03-05T00:37:56;94783.28;;;-1.31;47.12
74921;BME280;63483;47.384;8.860;2023-03-05T00:40:22;94779.88;;;-1.58;47.41
74921;BME280;63483;47.384;8.860;2023-03-05T00:42:47;94780.94;;;-2.00;44.46
74921;BME280;63483;47.384;8.860;2023-03-05T00:45:12;94779.53;;;-1.66;50.31
74921;BME280;63483;47.384;8.860;2023-03-05T00:47:38;94784.59;;;-1.51;49.22
74921;BME280;63483;47.384;8.860;2023-03-05T00:50:04;94786.16;;;-1.36;49.46
74921;BME280;63483;47.384;8.860;2023-03-05T00:52:32;94782.13;;;-1.53;49.65
74921;BME280;63483;47.384;8.860;2023-03-05T00:54:58;94778.94;;;-1.44;48.51
74921;BME280;63483;47.384;8.860;2023-03-05T00:57:23;94774.41;;;-1.66;45.25
74921;BME280;63483;47.384;8.860;2023-03-05T00:59:48;94771.13;;;-1.68;47.68
74921;BME280;63483;47.384;8.860;2023-03-05T01:02:14;94771.44;;;-1.60;49.16
74921;BME280;63483;47.384;8.860;2023-03-05T01:04:39;94771.63;;;-1.63;45.69
74921;BME280;63483;47.384;8.860;2023-03-05T01:07:04;94766.09;;;-1.57;48.87
74921;BME280;63483;47.384;8.860;2023-03-05T01:09:30;94765.38;;;-1.59;48.57
74921;BME280;63483;47.384;8.860;2023-03-05T01:11:55;94758.28;;;-1.42;47.41
74921;BME280;63483;47.384;8.860;2023-03-05T01:14:21;94756.34;;;-1.51;45.33
74921;BME280;63483;47.384;8.860;2023-03-05T01:16:47;94756.03;;;-1.73;44.53
74921;BME280;63483;47.384;8.860;2023-03-05T01:19:13;94747.69;;;-1.76;44.51
74921;BME280;63483;47.384;8.860;2023-03-05T01:21:39;94746.06;;;-1.51;48.05
74921;BME280;63483;47.384;8.860;2023-03-05T01:24:05;94740.41;;;-1.44;47.66
74921;BME280;63483;47.384;8.860;2023-03-05T01:26:30;94746.88;;;-1.51;49.23
74921;BME280;63483;47.384;8.860;2023-03-05T01:28:56;94737.19;;;-1.22;48.89
74921;BME280;63483;47.384;8.860;2023-03-05T01:31:21;94728.78;;;-1.24;49.09
74921;BME280;63483;47.384;8.860;2023-03-05T01:33:47;94724.28;;;-1.33;48.77
74921;BME280;63483;47.384;8.860;2023-03-05T01:36:14;94723.22;;;-1.17;49.10
74921;BME280;63483;47.384;8.860;2023-03-05T01:38:45;94723.19;;;-1.05;48.21
74921;BME280;63483;47.384;8.860;2023-03-05T01:41:13;94713.09;;;-0.95;47.92
74921;BME280;63483;47.384;8.860;2023-03-05T01:43:39;94714.75;;;-0.94;48.40
74921;BME280;63483;47.384;8.860;2023-03-05T01:46:30;94713.06;;;-0.82;48.03
74921;BME280;63483;47.384;8.860;2023-03-05T01:51:48;94716.63;;;-0.96;48.07
74921;BME280;63483;47.384;8.860;2023-03-05T01:54:18;94712.28;;;-1.08;48.36
74921;BME280;63483;47.384;8.860;2023-03-05T01:56:48;94707.13;;;-0.82;47.49
74921;BME280;63483;47.384;8.860;2023-03-05T01:59:15;94701.59;;;-1.02;48.36
74921;BME280;63483;47.384;8.860;2023-03-05T02:01:43;94698.50;;;-1.07;48.24
74921;BME280;63483;47.384;8.860;2023-03-05T02:04:14;94699.31;;;-0.94;48.29
74921;BME280;63483;47.384;8.860;2023-03-05T02:06:40;94699.41;;;-0.82;48.09
74921;BME280;63483;47.384;8.860;2023-03-05T02:09:06;94690.03;;;-0.83;47.35
74921;BME280;63483;47.384;8.860;2023-03-05T02:11:32;94692.38;;;-0.80;47.84
74921;BME280;63483;47.384;8.860;2023-03-05T02:13:58;94691.81;;;-0.97;48.07
74921;BME280;63483;47.384;8.860;2023-03-05T02:16:24;94689.91;;;-0.82;47.72
74921;BME280;63483;47.384;8.860;2023-03-05T02:18:50;94688.16;;;-0.81;47.70
74921;BME280;63483;47.384;8.860;2023-03-05T02:21:26;94688.13;;;-0.69;47.32
74921;BME280;63483;47.384;8.860;2023-03-05T02:23:52;94682.88;;;-0.67;47.28
74921;BME280;63483;47.384;8.860;2023-03-05T02:26:18;94687.91;;;-0.65;47.75
74921;BME280;63483;47.384;8.860;2023-03-05T02:28:48;94678.00;;;-0.59;47.19
74921;BME280;63483;47.384;8.860;2023-03-05T02:31:18;94670.41;;;-0.60;47.31
74921;BME280;63483;47.384;8.860;2023-03-05T02:33:44;94668.75;;;-0.61;47.54
74921;BME280;63483;47.384;8.860;2023-03-05T02:36:09;94663.31;;;-0.45;46.94
74921;BME280;63483;47.384;8.860;2023-03-05T02:38:36;94669.44;;;-0.35;46.41
74921;BME280;63483;47.384;8.860;2023-03-05T02:41:01;94660.53;;;-0.42;46.55
74921;BME280;63483;47.384;8.860;2023-03-05T02:43:27;94672.00;;;-0.35;46.63
74921;BME280;63483;47.384;8.860;2023-03-05T02:45:52;94658.63;;;-0.16;45.58
74921;BME280;63483;47.384;8.860;2023-03-05T02:48:18;94655.31;;;-0.54;47.19
74921;BME280;63483;47.384;8.860;2023-03-05T02:50:44;94658.34;;;-0.60;46.95
74921;BME280;63483;47.384;8.860;2023-03-05T02:53:10;94658.63;;;-0.52;47.33
74921;BME280;63483;47.384;8.860;2023-03-05T02:55:35;94648.34;;;-0.40;47.63
74921;BME280;63483;47.384;8.860;2023-03-05T02:58:01;94647.34;;;-0.26;46.58
74921;BME280;63483;47.384;8.860;2023-03-05T03:00:26;94646.75;;;-0.30;46.56
74921;BME280;63483;47.384;8.860;2023-03-05T03:02:52;94644.91;;;-0.28;47.12
74921;BME280;63483;47.384;8.860;2023-03-05T03:05:17;94639.94;;;-0.31;46.88
74921;BME280;63483;47.384;8.860;2023-03-05T03:07:42;94634.13;;;-0.22;46.89
74921;BME280;63483;47.384;8.860;2023-03-05T03:10:09;94643.97;;;-0.16;46.81
74921;BME280;63483;47.384;8.860;2023-03-05T03:12:38;94638.13;;;-0.06;46.64
74921;BME280;63483;47.384;8.860;2023-03-05T03:15:05;94624.09;;;-0.02;46.64
74921;BME280;63483;47.384;8.860;2023-03-05T03:17:30;94628.91;;;0.02;45.89
74921;BME280;63483;47.384;8.860;2023-03-05T03:19:55;94630.22;;;0.08;45.96
74921;BME280;63483;47.384;8.860;2023-03-05T03:22:21;94629.97;;;0.11;45.94
74921;BME280;63483;47.384;8.860;2023-03-05T03:24:46;94628.94;;;0.14;45.76
74921;BME280;63483;47.384;8.860;2023-03-05T03:27:11;94619.19;;;0.17;46.31
74921;BME280;63483;47.384;8.860;2023-03-05T03:29:37;94625.75;;;0.21;45.70
74921;BME280;63483;47.384;8.860;2023-03-05T03:32:02;94618.72;;;0.24;45.66
74921;BME280;63483;47.384;8.860;2023-03-05T03:34:28;94617.13;;;-0.36;48.30
74921;BME280;63483;47.384;8.860;2023-03-05T03:36:54;94619.63;;;-1.31;42.35
74921;BME280;63483;47.384;8.860;2023-03-05T03:39:20;94613.56;;;-2.18;43.68
74921;BME280;63483;47.384;8.860;2023-03-05T03:41:48;94616.59;;;-2.52;45.30
74921;BME280;63483;47.384;8.860;2023-03-05T03:44:14;94616.38;;;-2.74;46.17
74921;BME280;63483;47.384;8.860;2023-03-05T03:46:41;94613.09;;;-2.64;46.65
74921;BME280;63483;47.384;8.860;2023-03-05T03:49:18;94606.28;;;-2.90;46.18
74921;BME280;63483;47.384;8.860;2023-03-05T03:51:44;94610.47;;;-2.89;50.00
74921;BME280;63483;47.384;8.860;2023-03-05T03:54:10;94607.91;;;-2.23;50.94
74921;BME280;63483;47.384;8.860;2023-03-05T03:56:35;94603.03;;;-2.80;45.37
74921;BME280;63483;47.384;8.860;2023-03-05T03:59:01;94603.78;;;-2.52;45.96
74921;BME280;63483;47.384;8.860;2023-03-05T04:01:26;94603.44;;;-2.73;45.86
74921;BME280;63483;47.384;8.860;2023-03-05T04:03:51;94598.59;;;-2.90;44.76
74921;BME280;63483;47.384;8.860;2023-03-05T04:06:17;94598.25;;;-3.26;45.02
74921;BME280;63483;47.384;8.860;2023-03-05T04:08:42;94599.72;;;-3.49;45.29
74921;BME280;63483;47.384;8.860;2023-03-05T04:11:07;94593.69;;;-3.62;45.34
74921;BME280;63483;47.384;8.860;2023-03-05T04:13:33;94586.41;;;-3.83;45.51
74921;BME280;63483;47.384;8.860;2023-03-05T04:15:58;94590.63;;;-3.96;46.45
74921;BME280;63483;47.384;8.860;2023-03-05T04:18:24;94584.22;;;-4.04;45.55
74921;BME280;63483;47.384;8.860;2023-03-05T04:20:49;94584.75;;;-4.13;45.92
74921;BME280;63483;47.384;8.860;2023-03-05T04:23:15;94580.47;;;-4.12;46.11
74921;BME280;63483;47.384;8.860;2023-03-05T04:25:41;94574.53;;;-4.13;45.57
74921;BME280;63483;47.384;8.860;2023-03-05T04:28:06;94570.72;;;-4.20;45.34
74921;BME280;63483;47.384;8.860;2023-03-05T04:30:32;94569.78;;;-4.19;45.64
74921;BME280;63483;47.384;8.860;2023-03-05T04:32:57;94572.03;;;-3.71;48.88
74921;BME280;63483;47.384;8.860;2023-03-05T04:35:23;94581.63;;;-3.89;61.85
74921;BME280;63483;47.384;8.860;2023-03-05T04:37:48;94573.91;;;-4.02;51.65
74921;BME280;63483;47.384;8.860;2023-03-05T04:40:14;94567.41;;;-4.08;50.88
74921;BME280;63483;47.384;8.860;2023-03-05T04:42:40;94568.13;;;-4.06;51.15
74921;BME280;63483;47.384;8.860;2023-03-05T04:45:06;94570.69;;;-4.34;50.25
74921;BME280;63483;47.384;8.860;2023-03-05T04:47:33;94570.13;;;-4.54;49.80
74921;BME280;63483;47.384;8.860;2023-03-05T04:49:58;94570.50;;;-4.60;50.35
74921;BME280;63483;47.384;8.860;2023-03-05T04:52:23;94574.00;;;-4.77;50.90
74921;BME280;63483;47.384;8.860;2023-03-05T04:54:49;94569.13;;;-4.96;50.97
74921;BME280;63483;47.384;8.860;2023-03-05T04:57:15;94580.84;;;-5.08;51.30
74921;BME280;63483;47.384;8.860;2023-03-05T04:59:40;94571.47;;;-5.08;50.64
74921;BME280;63483;47.384;8.860;2023-03-05T05:02:06;94580.69;;;-5.21;50.94
74921;BME280;63483;47.384;8.860;2023-03-05T05:04:31;94567.94;;;-5.21;50.85
74921;BME280;63483;47.384;8.860;2023-03-05T05:06:57;94570.50;;;-5.21;50.59
74921;BME280;63483;47.384;8.860;2023-03-05T05:09:23;94566.84;;;-5.17;50.56
74921;BME280;63483;47.384;8.860;2023-03-05T05:11:49;94564.88;;;-5.12;49.52
74921;BME280;63483;47.384;8.860;2023-03-05T05:14:14;94565.63;;;-5.10;50.06
74921;BME280;63483;47.384;8.860;2023-03-05T05:16:40;94569.72;;;-5.07;49.28
74921;BME280;63483;47.384;8.860;2023-03-05T05:19:05;94559.25;;;-5.02;49.33
74921;BME280;63483;47.384;8.860;2023-03-05T05:21:32;94558.53;;;-5.04;48.75
74921;BME280;63483;47.384;8.860;2023-03-05T05:23:58;94557.59;;;-5.03;49.16
74921;BME280;63483;47.384;8.860;2023-03-05T05:26:23;94559.97;;;-5.00;48.50
74921;BME280;63483;47.384;8.860;2023-03-05T05:28:48;94552.13;;;-4.97;48.39
74921;BME280;63483;47.384;8.860;2023-03-05T05:31:15;94550.56;;;-4.84;48.33
74921;BME280;63483;47.384;8.860;2023-03-05T05:33:40;94554.44;;;-4.48;50.71
74921;BME280;63483;47.384;8.860;2023-03-05T05:36:08;94552.28;;;-3.69;59.94
74921;BME280;63483;47.384;8.860;2023-03-05T05:38:34;94550.34;;;-3.11;56.57
74921;BME280;63483;47.384;8.860;2023-03-05T05:41:10;94547.38;;;-2.65;55.15
74921;BME280;63483;47.384;8.860;2023-03-05T05:43:37;94548.50;;;-2.30;52.74
74921;BME280;63483;47.384;8.860;2023-03-05T05:46:05;94535.53;;;-2.03;52.38
74921;BME280;63483;47.384;8.860;2023-03-05T05:48:32;94539.91;;;-1.79;51.78
74921;BME280;63483;47.384;8.860;2023-03-05T05:50:58;94537.78;;;-1.61;51.29
74921;BME280;63483;47.384;8.860;2023-03-05T05:53:24;94552.25;;;-1.47;50.68
74921;BME280;63483;47.384;8.860;2023-03-05T05:55:50;94539.03;;;-1.30;50.66
74921;BME280;63483;47.384;8.860;2023-03-05T05:58:15;94542.59;;;-1.20;50.38
74921;BME280;63483;47.384;8.860;2023-03-05T06:00:41;94551.28;;;-1.09;50.23
74921;BME280;63483;47.384;8.860;2023-03-05T06:03:06;94545.50;;;-1.00;50.30
74921;BME280;63483;47.384;8.860;2023-03-05T06:05:32;94546.47;;;-0.90;50.28
74921;BME280;63483;47.384;8.860;2023-03-05T06:07:57;94537.16;;;-0.79;49.47
74921;BME280;63483;47.384;8.860;2023-03-05T06:10:23;94539.97;;;-0.71;48.98
74921;BME280;63483;47.384;8.860;2023-03-05T06:12:48;94532.63;;;-0.64;48.96
74921;BME280;63483;47.384;8.860;2023-03-05T06:15:13;94536.38;;;-0.57;49.11
74921;BME280;63483;47.384;8.860;2023-03-05T06:17:39;94531.59;;;-0.51;49.13
74921;BME280;63483;47.384;8.860;2023-03-05T06:20:05;94538.16;;;-0.46;48.91
74921;BME280;63483;47.384;8.860;2023-03-05T06:22:34;94536.16;;;-0.43;49.32
74921;BME280;63483;47.384;8.860;2023-03-05T06:25:00;94535.84;;;-0.38;49.12
74921;BME280;63483;47.384;8.860;2023-03-05T06:27:25;94535.59;;;-0.35;48.95
74921;BME280;63483;47.384;8.860;2023-03-05T06:29:52;94531.97;;;-0.33;48.69
74921;BME280;63483;47.384;8.860;2023-03-05T06:32:17;94533.25;;;-0.27;49.00
74921;BME280;63483;47.384;8.860;2023-03-05T06:34:42;94529.66;;;-0.24;48.92
74921;BME280;63483;47.384;8.860;2023-03-05T06:37:08;94532.66;;;-0.19;48.74
74921;BME280;63483;47.384;8.860;2023-03-05T06:39:33;94532.47;;;-0.16;48.82
74921;BME280;63483;47.384;8.860;2023-03-05T06:41:58;94535.63;;;-0.12;48.58
74921;BME280;63483;47.384;8.860;2023-03-05T06:44:24;94528.59;;;-0.10;48.72
74921;BME280;63483;47.384;8.860;2023-03-05T06:46:49;94531.66;;;-0.05;48.70
74921;BME280;63483;47.384;8.860;2023-03-05T06:49:15;94524.59;;;-0.03;48.56
74921;BME280;63483;47.384;8.860;2023-03-05T06:51:40;94524.38;;;-0.00;48.93
74921;BME280;63483;47.384;8.860;2023-03-05T06:54:14;94521.44;;;0.04;48.62
74921;BME280;63483;47.384;8.860;2023-03-05T06:56:42;94517.00;;;0.07;48.82
74921;BME280;63483;47.384;8.860;2023-03-05T06:59:09;94515.97;;;0.09;48.46
74921;BME280;63483;47.384;8.860;2023-03-05T07:01:35;94516.44;;;-0.89;49.11
74921;BME280;63483;47.384;8.860;2023-03-05T07:04:00;94508.59;;;-1.84;45.18
74921;BME280;63483;47.384;8.860;2023-03-05T07:06:27;94506.63;;;-2.56;45.68
74921;BME280;63483;47.384;8.860;2023-03-05T07:08:54;94516.44;;;-3.15;46.93
74921;BME280;63483;47.384;8.860;2023-03-05T07:11:23;94517.03;;;-3.51;49.18
74921;BME280;63483;47.384;8.860;2023-03-05T07:13:48;94521.69;;;-3.85;49.12
74921;BME280;63483;47.384;8.860;2023-03-05T07:16:20;94515.91;;;-3.47;52.13
74921;BME280;63483;47.384;8.860;2023-03-05T07:18:46;94516.47;;;-3.29;50.08
74921;BME280;63483;47.384;8.860;2023-03-05T07:21:22;94517.09;;;-2.85;52.91
74921;BME280;63483;47.384;8.860;2023-03-05T07:23:48;94507.66;;;-2.85;49.57
74921;BME280;63483;47.384;8.860;2023-03-05T07:26:13;94513.63;;;-2.58;52.19
74921;BME280;63483;47.384;8.860;2023-03-05T07:28:39;94520.06;;;-2.40;51.94
74921;BME280;63483;47.384;8.860;2023-03-05T07:31:07;94516.34;;;-2.10;53.73
74921;BME280;63483;47.384;8.860;2023-03-05T07:33:33;94523.56;;;-1.78;53.78
74921;BME280;63483;47.384;8.860;2023-03-05T07:36:01;94513.22;;;-1.52;53.08
74921;BME280;63483;47.384;8.860;2023-03-05T07:38:29;94506.72;;;-1.45;52.55
74921;BME280;63483;47.384;8.860;2023-03-05T07:40:55;94507.47;;;-1.32;50.02
74921;BME280;63483;47.384;8.860;2023-03-05T07:43:20;94509.81;;;-1.29;49.41
74921;BME280;63483;47.384;8.860;2023-03-05T07:45:45;94512.66;;;-1.21;47.92
74921;BME280;63483;47.384;8.860;2023-03-05T07:48:14;94512.34;;;-1.40;48.28
74921;BME280;63483;47.384;8.860;2023-03-05T07:50:40;94510.56;;;-1.15;49.53
74921;BME280;63483;47.384;8.860;2023-03-05T07:53:06;94513.75;;;-0.88;50.55
74921;BME280;63483;47.384;8.860;2023-03-05T07:55:31;94510.06;;;-0.61;49.99
74921;BME280;63483;47.384;8.860;2023-03-05T07:57:56;94505.63;;;-0.59;49.82
74921;BME280;63483;47.384;8.860;2023-03-05T08:00:22;94503.13;;;-1.07;58.00
74921;BME280;63483;47.384;8.860;2023-03-05T08:02:47;94504.13;;;-1.45;52.44
74921;BME280;63483;47.384;8.860;2023-03-05T08:05:14;94502.78;;;-1.38;47.51
74921;BME280;63483;47.384;8.860;2023-03-05T08:07:39;94493.97;;;-1.23;51.09
74921;BME280;63483;47.384;8.860;2023-03-05T08:10:05;94502.25;;;-0.95;49.69
74921;BME280;63483;47.384;8.860;2023-03-05T08:12:31;94491.75;;;-0.92;51.00
74921;BME280;63483;47.384;8.860;2023-03-05T08:14:56;94493.44;;;-0.68;49.84
74921;BME280;63483;47.384;8.860;2023-03-05T08:17:21;94491.78;;;-0.80;50.25
74921;BME280;63483;47.384;8.860;2023-03-05T08:19:47;94492.63;;;-0.69;48.44
74921;BME280;63483;47.384;8.860;2023-03-05T08:22:12;94485.59;;;-0.78;46.87
74921;BME280;63483;47.384;8.860;2023-03-05T08:24:40;94489.00;;;-0.66;49.68
74921;BME280;63483;47.384;8.860;2023-03-05T08:27:06;94489.72;;;-0.53;46.73
74921;BME280;63483;47.384;8.860;2023-03-05T08:29:31;94479.41;;;-0.64;45.80
74921;BME280;63483;47.384;8.860;2023-03-05T08:31:56;94486.44;;;-0.55;47.21
74921;BME280;63483;47.384;8.860;2023-03-05T08:34:22;94469.69;;;-0.83;45.01
74921;BME280;63483;47.384;8.860;2023-03-05T08:36:47;94484.41;;;-1.21;45.78
74921;BME280;63483;47.384;8.860;2023-03-05T08:39:13;94475.78;;;-1.08;44.56
74921;BME280;63483;47.384;8.860;2023-03-05T08:41:38;94479.16;;;-1.19;43.81
74921;BME280;63483;47.384;8.860;2023-03-05T08:44:05;94472.31;;;-1.56;43.15
74921;BME280;63483;47.384;8.860;2023-03-05T08:46:30;94470.16;;;-1.73;44.35
74921;BME280;63483;47.384;8.860;2023-03-05T08:48:56;94470.28;;;-1.50;46.90
74921;BME280;63483;47.384;8.860;2023-03-05T08:51:23;94470.56;;;-1.31;45.32
74921;BME280;63483;47.384;8.860;2023-03-05T08:53:50;94471.78;;;-1.24;43.62
74921;BME280;63483;47.384;8.860;2023-03-05T08:56:16;94473.75;;;-1.03;49.41
74921;BME280;63483;47.384;8.860;2023-03-05T08:58:42;94473.31;;;-0.74;49.55
74921;BME280;63483;47.384;8.860;2023-03-05T09:01:08;94472.41;;;-0.51;50.87
74921;BME280;63483;47.384;8.860;2023-03-05T09:03:33;94472.31;;;-0.38;50.03
74921;BME280;63483;47.384;8.860;2023-03-05T09:06:01;94471.00;;;-0.21;49.91
74921;BME280;63483;47.384;8.860;2023-03-05T09:08:27;94472.91;;;-0.11;49.83
74921;BME280;63483;47.384;8.860;2023-03-05T09:10:54;94468.41;;;0.13;49.30
74921;BME280;63483;47.384;8.860;2023-03-05T09:13:19;94470.97;;;0.25;49.57
74921;BME280;63483;47.384;8.860;2023-03-05T09:15:44;94465.66;;;0.37;48.90
74921;BME280;63483;47.384;8.860;2023-03-05T09:18:10;94457.56;;;0.42;49.27
74921;BME280;63483;47.384;8.860;2023-03-05T09:20:36;94464.31;;;0.54;49.16
74921;BME280;63483;47.384;8.860;2023-03-05T09:23:02;94455.84;;;0.64;48.48
74921;BME280;63483;47.384;8.860;2023-03-05T09:25:27;94455.25;;;0.71;48.54
74921;BME280;63483;47.384;8.860;2023-03-05T09:27:53;94441.22;;;0.85;48.13
74921;BME280;63483;47.384;8.860;2023-03-05T09:30:18;94447.31;;;0.84;48.45
74921;BME280;63483;47.384;8.860;2023-03-05T09:32:44;94439.66;;;0.94;47.98
74921;BME280;63483;47.384;8.860;2023-03-05T09:35:10;94432.22;;;1.01;48.53
74921;BME280;63483;47.384;8.860;2023-03-05T09:37:36;94434.81;;;1.01;48.89
74921;BME280;63483;47.384;8.860;2023-03-05T09:40:01;94440.28;;;1.07;47.34
74921;BME280;63483;47.384;8.860;2023-03-05T09:42:41;94440.84;;;1.32;47.00
74921;BME280;63483;47.384;8.860;2023-03-05T09:45:43;94440.09;;;1.20;47.24
74921;BME280;63483;47.384;8.860;2023-03-05T09:50:41;94436.50;;;1.33;46.51
74921;BME280;63483;47.384;8.860;2023-03-05T09:53:15;94426.69;;;1.26;46.94
74921;BME280;63483;47.384;8.860;2023-03-05T09:55:45;94429.94;;;1.29;47.19
74921;BME280;63483;47.384;8.860;2023-03-05T09:58:12;94424.09;;;1.48;47.63
74921;BME280;63483;47.384;8.860;2023-03-05T10:00:47;94424.78;;;1.29;47.36
74921;BME280;63483;47.384;8.860;2023-03-05T10:03:21;94419.38;;;1.32;47.89
74921;BME280;63483;47.384;8.860;2023-03-05T10:09:04;94420.50;;;1.39;47.03
74921;BME280;63483;47.384;8.860;2023-03-05T10:13:59;94418.69;;;1.51;46.49
74921;BME280;63483;47.384;8.860;2023-03-05T10:22:09;94403.25;;;1.60;45.95
74921;BME280;63483;47.384;8.860;2023-03-05T10:27:45;94404.50;;;1.76;45.09
74921;BME280;63483;47.384;8.860;2023-03-05T10:38:48;94391.09;;;1.92;45.33
74921;BME280;63483;47.384;8.860;2023-03-05T10:44:00;94378.44;;;1.89;44.54
74921;BME280;63483;47.384;8.860;2023-03-05T10:46:34;94380.22;;;1.98;44.20
74921;BME280;63483;47.384;8.860;2023-03-05T10:49:22;94371.78;;;1.86;43.66
74921;BME280;63483;47.384;8.860;2023-03-05T10:52:16;94372.13;;;1.72;43.64
74921;BME280;63483;47.384;8.860;2023-03-05T10:54:42;94370.38;;;1.72;43.05
74921;BME280;63483;47.384;8.860;2023-03-05T10:59:36;94363.50;;;2.02;43.32
74921;BME280;63483;47.384;8.860;2023-03-05T11:02:07;94369.09;;;1.98;42.04
74921;BME280;63483;47.384;8.860;2023-03-05T11:04:36;94361.44;;;1.15;41.28
74921;BME280;63483;47.384;8.860;2023-03-05T11:12:33;94352.28;;;1.32;41.82
74921;BME280;63483;47.384;8.860;2023-03-05T11:17:38;94349.69;;;1.22;38.91
74921;BME280;63483;47.384;8.860;2023-03-05T11:23:18;94340.22;;;1.42;40.36
74921;BME280;63483;47.384;8.860;2023-03-05T11:28:34;94342.19;;;1.19;38.38
74921;BME280;63483;47.384;8.860;2023-03-05T11:34:43;94330.25;;;0.66;38.96
74921;BME280;63483;47.384;8.860;2023-03-05T11:39:17;94322.63;;;-0.10;38.54
74921;BME280;63483;47.384;8.860;2023-03-05T11:41:52;94329.25;;;-0.40;39.60
74921;BME280;63483;47.384;8.860;2023-03-05T11:44:28;94312.78;;;-0.05;42.48
74921;BME280;63483;47.384;8.860;2023-03-05T11:47:03;94320.38;;;-0.47;46.82
74921;BME280;63483;47.384;8.860;2023-03-05T11:49:41;94308.75;;;-0.97;43.40
74921;BME280;63483;47.384;8.860;2023-03-05T11:52:13;94303.44;;;-1.29;43.96
74921;BME280;63483;47.384;8.860;2023-03-05T11:57:28;94296.34;;;-1.73;44.09
74921;BME280;63483;47.384;8.860;2023-03-05T11:59:57;94290.09;;;-1.93;45.18
74921;BME280;63483;47.384;8.860;2023-03-05T12:02:25;94292.88;;;-2.07;44.87
74921;BME280;63483;47.384;8.860;2023-03-05T12:04:51;94288.38;;;-1.81;46.38
74921;BME280;63483;47.384;8.860;2023-03-05T12:07:27;94285.19;;;-1.96;46.43
74921;BME280;63483;47.384;8.860;2023-03-05T12:09:55;94286.84;;;-1.95;46.32
74921;BME280;63483;47.384;8.860;2023-03-05T12:15:13;94271.06;;;-2.01;45.70
74921;BME280;63483;47.384;8.860;2023-03-05T12:23:19;94269.44;;;-0.65;46.13
74921;BME280;63483;47.384;8.860;2023-03-05T12:25:49;94263.88;;;-0.05;46.47
74921;BME280;63483;47.384;8.860;2023-03-05T12:28:52;94249.78;;;0.41;46.31
74921;BME280;63483;47.384;8.860;2023-03-05T12:31:05;94258.16;;;0.85;45.95
74921;BME280;63483;47.384;8.860;2023-03-05T12:33:44;94252.44;;;1.22;45.18
74921;BME280;63483;47.384;8.860;2023-03-05T12:38:42;94240.75;;;1.78;43.67
74921;BME280;63483;47.384;8.860;2023-03-05T12:47:17;94230.22;;;2.39;42.57
74921;BME280;63483;47.384;8.860;2023-03-05T12:51:53;94237.06;;;2.67;42.01
74921;BME280;63483;47.384;8.860;2023-03-05T12:54:38;94222.06;;;2.81;41.04
74921;BME280;63483;47.384;8.860;2023-03-05T12:57:18;94223.41;;;2.85;42.08
74921;BME280;63483;47.384;8.860;2023-03-05T12:59:49;94215.50;;;2.87;42.19
74921;BME280;63483;47.384;8.860;2023-03-05T13:02:26;94210.03;;;2.90;41.19
74921;BME280;63483;47.384;8.860;2023-03-05T13:04:57;94206.72;;;2.97;40.55
74921;BME280;63483;47.384;8.860;2023-03-05T13:07:24;94205.38;;;2.93;41.08
74921;BME280;63483;47.384;8.860;2023-03-05T13:09:54;94205.13;;;2.96;41.06
74921;BME280;63483;47.384;8.860;2023-03-05T13:12:20;94196.06;;;3.10;41.05
74921;BME280;63483;47.384;8.860;2023-03-05T13:14:48;94191.59;;;3.30;40.01
74921;BME280;63483;47.384;8.860;2023-03-05T13:23:22;94191.94;;;3.63;39.10
74921;BME280;63483;47.384;8.860;2023-03-05T13:26:15;94185.19;;;3.07;39.13
74921;BME280;63483;47.384;8.860;2023-03-05T13:28:44;94186.38;;;3.40;40.66
74921;BME280;63483;47.384;8.860;2023-03-05T13:31:15;94185.34;;;3.51;39.92
74921;BME280;63483;47.384;8.860;2023-03-05T13:33:52;94187.75;;;3.34;41.23
74921;BME280;63483;47.384;8.860;2023-03-05T13:36:19;94184.09;;;3.55;39.31
74921;BME280;63483;47.384;8.860;2023-03-05T13:38:46;94179.66;;;3.65;38.98
74921;BME280;63483;47.384;8.860;2023-03-05T13:41:24;94180.69;;;3.72;38.96
74921;BME280;63483;47.384;8.860;2023-03-05T13:46:38;94181.41;;;3.83;39.34
74921;BME280;63483;47.384;8.860;2023-03-05T13:49:36;94178.69;;;3.84;38.70
74921;BME280;63483;47.384;8.860;2023-03-05T13:52:01;94181.41;;;3.83;38.33
74921;BME280;63483;47.384;8.860;2023-03-05T13:54:27;94173.00;;;3.81;38.71
74921;BME280;63483;47.384;8.860;2023-03-05T13:56:59;94173.19;;;3.87;38.29
74921;BME280;63483;47.384;8.860;2023-03-05T13:59:26;94168.81;;;3.88;38.32
74921;BME280;63483;47.384;8.860;2023-03-05T14:01:54;94170.75;;;3.86;38.62
74921;BME280;63483;47.384;8.860;2023-03-05T14:04:24;94170.75;;;3.86;38.33
74921;BME280;63483;47.384;8.860;2023-03-05T14:07:00;94158.75;;;3.85;38.63
74921;BME280;63483;47.384;8.860;2023-03-05T14:09:48;94151.97;;;3.84;38.23
74921;BME280;63483;47.384;8.860;2023-03-05T14:12:39;94153.16;;;3.71;38.66
74921;BME280;63483;47.384;8.860;2023-03-05T14:17:44;94145.38;;;3.71;38.74
74921;BME280;63483;47.384;8.860;2023-03-05T14:22:37;94132.94;;;3.75;38.60
74921;BME280;63483;47.384;8.860;2023-03-05T14:25:04;94140.56;;;3.77;38.25
74921;BME280;63483;47.384;8.860;2023-03-05T14:27:33;94137.00;;;3.78;38.15
74921;BME280;63483;47.384;8.860;2023-03-05T14:29:59;94135.09;;;3.80;38.30
74921;BME280;63483;47.384;8.860;2023-03-05T14:32:34;94127.16;;;3.81;38.46
74921;BME280;63483;47.384;8.860;2023-03-05T14:35:02;94133.44;;;3.79;38.53